Hoopa, California
Current Conditions -  °F | °C
As of 7:53 PM on Wednesday 22 Oct 2014 (Local Time) from KACV Reporting Station
Light Rain Light Rain  
Wind Chill: 61°   Ceiling: 4700
Heat Index: 61°   Visibility: 10mi
Dew Point: 57°   Wind: 7mph
Humidity: 87%   Direction: 130°SE
Pressure: 29.94"   Gusts: NA
Location:  41.05°N, 123.68°W
Report Text: KACV 230253Z AUTO 13006KT 10SM -RA SCT036 OVC047 16/14 A2994 RMK AO2 SLP144 P0004 60010 T01610139 55001
Loading
Personal Weather Stations






























Interactive Weather Map
Tropical Storm Tracking
New forecast layout! Learn more

10-Day Weather Forecast

Advertisements
Track Severe Weather on mobile